createdAt,value
2022-11-18T00:01:13.408Z,18.58
2022-11-18T00:03:41.676Z,21.15
2022-11-18T00:06:15.164Z,20.05
2022-11-18T00:08:42.643Z,25.48
2022-11-18T00:11:37.865Z,24.17
2022-11-18T00:14:22.400Z,22.23
2022-11-18T00:17:01.906Z,19.30
2022-11-18T00:19:30.942Z,19.63
2022-11-18T00:21:58.333Z,23.02
2022-11-18T00:24:26.389Z,21.35
2022-11-18T00:26:53.975Z,13.88
2022-11-18T00:29:21.931Z,14.70
2022-11-18T00:31:49.553Z,13.70
2022-11-18T00:34:18.281Z,13.48
2022-11-18T00:36:46.061Z,11.05
2022-11-18T00:39:15.634Z,9.32
2022-11-18T00:42:01.468Z,13.93
2022-11-18T00:44:28.859Z,10.00
2022-11-18T00:46:56.319Z,11.05
2022-11-18T00:49:24.402Z,10.15
2022-11-18T00:51:51.426Z,11.40
2022-11-18T00:54:18.903Z,11.73
2022-11-18T00:56:45.973Z,11.43
2022-11-18T00:59:13.296Z,7.22
2022-11-18T01:01:40.373Z,7.90
2022-11-18T01:04:07.891Z,9.55
2022-11-18T01:06:34.937Z,6.38
2022-11-18T01:09:02.280Z,8.45
2022-11-18T01:11:52.298Z,7.88
2022-11-18T01:14:19.609Z,7.07
2022-11-18T01:16:51.239Z,9.68
2022-11-18T01:19:19.700Z,8.38
2022-11-18T01:21:47.229Z,7.28
2022-11-18T01:24:14.706Z,7.00
2022-11-18T01:26:41.977Z,6.55
2022-11-18T01:29:09.611Z,6.60
2022-11-18T01:31:55.229Z,7.63
2022-11-18T01:34:27.351Z,18.08
2022-11-18T01:36:54.528Z,8.13
2022-11-18T01:39:22.165Z,6.35
2022-11-18T01:41:49.158Z,7.00
2022-11-18T01:44:54.357Z,9.45
2022-11-18T01:47:21.614Z,6.95
2022-11-18T01:49:48.976Z,6.95
2022-11-18T01:52:16.054Z,6.13
2022-11-18T01:54:48.030Z,8.60
2022-11-18T01:57:22.431Z,5.88
2022-11-18T01:59:54.043Z,9.05
2022-11-18T02:02:22.636Z,6.15
2022-11-18T02:04:53.135Z,7.30
2022-11-18T02:07:21.458Z,9.05
2022-11-18T02:09:50.349Z,8.65
2022-11-18T02:12:17.820Z,6.90
2022-11-18T02:14:47.844Z,6.35
2022-11-18T02:17:27.490Z,6.25
2022-11-18T02:20:09.821Z,8.57
2022-11-18T02:22:58.718Z,7.85
2022-11-18T02:25:35.118Z,7.10
2022-11-18T02:28:39.920Z,9.93
2022-11-18T02:31:34.621Z,5.50
2022-11-18T02:34:07.790Z,5.40
2022-11-18T02:36:49.285Z,6.40
2022-11-18T02:39:29.893Z,5.70
2022-11-18T02:41:59.855Z,5.70
2022-11-18T02:44:29.391Z,4.70
2022-11-18T02:47:01.680Z,4.93
2022-11-18T02:49:43.531Z,5.68
2022-11-18T02:52:13.049Z,6.70
2022-11-18T02:54:42.070Z,11.70
2022-11-18T02:57:10.035Z,4.25
2022-11-18T02:59:38.448Z,6.13
2022-11-18T03:02:05.967Z,6.38
2022-11-18T03:04:34.564Z,4.38
2022-11-18T03:07:11.209Z,4.70
2022-11-18T03:09:42.618Z,5.38
2022-11-18T03:12:39.007Z,4.93
2022-11-18T03:15:21.198Z,4.68
2022-11-18T03:18:00.382Z,11.00
2022-11-18T03:20:33.321Z,7.18
2022-11-18T03:23:12.654Z,5.35
2022-11-18T03:25:53.555Z,4.43
2022-11-18T03:28:49.419Z,4.07
2022-11-18T03:31:21.300Z,7.45
2022-11-18T03:33:56.573Z,5.13
2022-11-18T03:38:55.489Z,3.80
2022-11-18T03:41:32.232Z,4.63
2022-11-18T03:44:10.478Z,4.15
2022-11-18T03:46:45.239Z,4.82
2022-11-18T03:52:10.579Z,3.35
2022-11-18T03:54:40.455Z,3.50
2022-11-18T03:57:15.924Z,3.20
2022-11-18T03:59:48.949Z,4.10
2022-11-18T04:02:20.519Z,3.35
2022-11-18T04:04:51.325Z,6.00
2022-11-18T04:07:42.319Z,4.22
2022-11-18T04:10:27.112Z,2.80
2022-11-18T04:13:12.556Z,3.60
2022-11-18T04:15:41.822Z,3.22
2022-11-18T04:18:09.973Z,19.85
2022-11-18T04:20:37.753Z,19.55
2022-11-18T04:23:06.436Z,14.05
2022-11-18T04:25:34.552Z,14.45
2022-11-18T04:28:01.788Z,5.50
2022-11-18T04:30:29.225Z,9.98
2022-11-18T04:32:56.272Z,30.35
2022-11-18T04:35:23.780Z,4.95
2022-11-18T04:37:50.904Z,20.15
2022-11-18T04:40:18.163Z,3.45
2022-11-18T04:42:45.226Z,8.65
2022-11-18T04:45:12.489Z,8.77
2022-11-18T04:47:39.472Z,6.05
2022-11-18T04:50:07.241Z,5.00
2022-11-18T04:52:34.218Z,4.97
2022-11-18T04:55:01.500Z,8.15
2022-11-18T04:57:28.490Z,6.20
2022-11-18T04:59:55.869Z,8.75
2022-11-18T05:02:22.878Z,5.88
2022-11-18T05:04:50.247Z,5.32
2022-11-18T05:07:17.343Z,5.65
2022-11-18T05:09:44.624Z,3.60
2022-11-18T05:12:32.770Z,5.15
2022-11-18T05:15:00.634Z,4.75
2022-11-18T05:17:27.706Z,4.88
2022-11-18T05:19:55.208Z,4.40
2022-11-18T05:22:22.540Z,4.70
2022-11-18T05:24:49.905Z,5.05
2022-11-18T05:27:17.408Z,5.00
2022-11-18T05:29:44.719Z,4.93
2022-11-18T05:32:11.883Z,4.57
2022-11-18T05:34:43.198Z,5.75
2022-11-18T05:37:10.396Z,5.90
2022-11-18T05:39:37.669Z,10.57
2022-11-18T05:42:23.843Z,5.00
2022-11-18T05:44:57.513Z,7.03
2022-11-18T05:47:25.193Z,8.55
2022-11-18T05:49:52.563Z,5.35
2022-11-18T05:52:20.553Z,5.40
2022-11-18T05:54:50.412Z,6.10
2022-11-18T05:57:17.423Z,5.43
2022-11-18T05:59:44.685Z,5.45
2022-11-18T06:02:16.659Z,5.88
2022-11-18T06:04:51.111Z,6.18
2022-11-18T06:07:26.793Z,6.53
2022-11-18T06:10:04.760Z,5.82
2022-11-18T06:12:38.793Z,5.40
2022-11-18T06:15:25.575Z,5.80
2022-11-18T06:17:58.696Z,5.97
2022-11-18T06:20:26.953Z,5.63
2022-11-18T06:22:56.419Z,5.50
2022-11-18T06:25:24.384Z,6.53
2022-11-18T06:27:54.429Z,5.75
2022-11-18T06:30:21.791Z,11.60
2022-11-18T06:32:50.532Z,6.93
2022-11-18T06:35:32.766Z,6.55
2022-11-18T06:38:09.194Z,5.82
2022-11-18T06:40:37.672Z,5.68
2022-11-18T06:43:27.663Z,7.22
2022-11-18T06:46:18.089Z,5.55
2022-11-18T06:48:45.452Z,5.70
2022-11-18T06:51:13.113Z,6.05
2022-11-18T06:53:40.530Z,5.75
2022-11-18T06:56:10.471Z,6.00
2022-11-18T06:58:37.647Z,5.50
2022-11-18T07:01:13.952Z,5.70
2022-11-18T07:03:42.257Z,5.22
2022-11-18T07:06:11.342Z,5.60
2022-11-18T07:08:39.980Z,6.30
2022-11-18T07:11:10.820Z,5.93
2022-11-18T07:13:43.417Z,5.88
2022-11-18T07:16:14.226Z,7.30
2022-11-18T07:18:42.957Z,6.93
2022-11-18T07:21:26.663Z,6.32
2022-11-18T07:23:54.950Z,9.07
2022-11-18T07:26:22.354Z,12.98
2022-11-18T07:28:49.587Z,9.25
2022-11-18T07:31:21.091Z,10.30
2022-11-18T07:33:48.540Z,8.77
2022-11-18T07:36:24.482Z,6.00
2022-11-18T07:38:52.156Z,7.88
2022-11-18T07:41:22.389Z,10.07
2022-11-18T07:43:53.948Z,34.03
2022-11-18T07:46:36.563Z,24.42
2022-11-18T07:49:06.566Z,8.00
2022-11-18T07:51:36.218Z,16.58
2022-11-18T07:54:17.247Z,14.93
2022-11-18T07:56:44.631Z,13.27
2022-11-18T07:59:11.950Z,12.77
2022-11-18T08:01:39.530Z,13.82
2022-11-18T08:04:11.889Z,22.77
2022-11-18T08:07:16.966Z,13.23
2022-11-18T08:10:21.548Z,5.72
2022-11-18T08:12:51.650Z,13.63
2022-11-18T08:15:19.584Z,9.20
2022-11-18T08:17:46.872Z,12.43
2022-11-18T08:20:14.685Z,6.93
2022-11-18T08:22:42.045Z,20.65
2022-11-18T08:25:11.165Z,16.60
2022-11-18T08:27:38.496Z,10.57
2022-11-18T08:30:06.006Z,13.98
2022-11-18T08:32:33.692Z,10.68
2022-11-18T08:35:00.674Z,10.60
2022-11-18T08:37:28.081Z,6.63
2022-11-18T08:39:55.139Z,9.10
2022-11-18T08:42:24.557Z,11.02
2022-11-18T08:44:52.604Z,12.38
2022-11-18T08:47:19.991Z,13.40
2022-11-18T08:49:47.460Z,13.57
2022-11-18T08:52:14.704Z,16.67
2022-11-18T08:54:41.667Z,8.88
2022-11-18T08:57:09.060Z,8.60
2022-11-18T08:59:36.210Z,20.58
2022-11-18T09:02:23.308Z,22.83
2022-11-18T09:05:18.682Z,40.70
2022-11-18T09:08:08.778Z,31.98
2022-11-18T09:10:38.372Z,31.75
2022-11-18T09:13:33.802Z,20.88
2022-11-18T09:15:55.010Z,18.88
2022-11-18T09:18:22.727Z,10.88
2022-11-18T09:21:02.226Z,19.83
2022-11-18T09:23:30.932Z,16.25
2022-11-18T09:26:05.931Z,15.65
2022-11-18T09:28:33.480Z,7.95
2022-11-18T09:31:12.673Z,9.90
2022-11-18T09:33:40.736Z,7.00
2022-11-18T09:36:25.579Z,3.95
2022-11-18T09:38:53.633Z,6.10
2022-11-18T09:41:36.892Z,8.93
2022-11-18T09:44:42.636Z,12.43
2022-11-18T09:47:14.594Z,10.90
2022-11-18T09:49:43.204Z,9.50
2022-11-18T09:52:24.987Z,5.00
2022-11-18T09:54:52.245Z,5.18
2022-11-18T09:57:40.312Z,6.45
2022-11-18T10:00:30.369Z,3.80
2022-11-18T10:03:02.927Z,4.03
2022-11-18T10:05:41.654Z,6.63
2022-11-18T10:08:14.974Z,6.07
2022-11-18T10:10:57.767Z,6.53
2022-11-18T10:13:45.348Z,5.85
2022-11-18T10:16:47.370Z,9.95
2022-11-18T10:19:20.431Z,24.25
2022-11-18T10:22:30.410Z,12.00
2022-11-18T10:25:00.772Z,13.23
2022-11-18T10:27:39.540Z,10.65
2022-11-18T10:30:25.253Z,20.20
2022-11-18T10:32:57.690Z,5.43
2022-11-18T10:35:36.872Z,8.43
2022-11-18T10:38:13.567Z,5.30
2022-11-18T10:41:06.106Z,8.80
2022-11-18T10:44:04.037Z,42.58
2022-11-18T10:46:35.797Z,19.40
2022-11-18T10:49:08.672Z,6.72
2022-11-18T10:52:08.052Z,7.50
2022-11-18T10:54:35.160Z,10.27
2022-11-18T10:57:11.419Z,6.75
2022-11-18T11:00:28.977Z,3.97
2022-11-18T11:07:26.849Z,7.05
2022-11-18T11:10:24.488Z,12.90
2022-11-18T11:13:04.521Z,14.02
2022-11-18T11:16:14.567Z,12.75
2022-11-18T11:20:04.879Z,8.95
2022-11-18T11:22:45.515Z,10.38
2022-11-18T11:29:28.188Z,7.27
2022-11-18T11:32:17.504Z,9.00
2022-11-18T11:35:06.666Z,17.92
2022-11-18T11:37:35.656Z,8.00
2022-11-18T11:40:22.530Z,12.85
2022-11-18T11:43:20.370Z,12.88
2022-11-18T11:46:18.105Z,8.13
2022-11-18T11:49:31.686Z,6.90
2022-11-18T11:52:35.411Z,4.97
2022-11-18T11:55:29.690Z,6.63
2022-11-18T11:58:33.067Z,5.63
2022-11-18T12:01:11.292Z,10.25
2022-11-18T12:03:55.110Z,7.00
2022-11-18T12:09:20.019Z,4.97
2022-11-18T12:12:03.110Z,5.33
2022-11-18T12:14:42.211Z,7.78
2022-11-18T12:17:19.206Z,8.15
2022-11-18T12:19:46.527Z,6.18
2022-11-18T12:22:13.987Z,3.50
2022-11-18T12:24:44.427Z,3.65
2022-11-18T12:27:58.692Z,3.25
2022-11-18T12:30:26.245Z,4.32
2022-11-18T12:32:56.809Z,4.13
2022-11-18T12:35:36.460Z,4.68
2022-11-18T12:38:03.942Z,5.90
2022-11-18T12:40:39.042Z,4.82
2022-11-18T12:43:44.364Z,3.85
2022-11-18T12:46:45.397Z,8.77
2022-11-18T12:49:21.847Z,9.45
2022-11-18T12:51:51.266Z,7.18
2022-11-18T12:54:38.459Z,5.05
2022-11-18T12:57:24.217Z,4.82
2022-11-18T13:02:21.202Z,7.80
2022-11-18T13:05:04.883Z,7.15
2022-11-18T13:07:53.512Z,9.07
2022-11-18T13:10:29.864Z,8.48
2022-11-18T13:12:57.276Z,9.50
2022-11-18T13:15:43.357Z,6.72
2022-11-18T13:18:19.826Z,5.38
2022-11-18T13:20:57.875Z,9.73
2022-11-18T13:23:49.994Z,6.15
2022-11-18T13:26:34.653Z,9.23
2022-11-18T13:29:20.592Z,6.43
2022-11-18T13:32:15.449Z,6.38
2022-11-18T13:34:57.405Z,7.97
2022-11-18T13:37:30.047Z,6.75
2022-11-18T13:39:57.567Z,5.72
2022-11-18T13:42:30.601Z,4.97
2022-11-18T13:45:02.106Z,5.47
2022-11-18T13:47:38.905Z,3.92
2022-11-18T13:50:06.412Z,4.43
2022-11-18T13:52:38.952Z,5.45
2022-11-18T13:55:21.222Z,3.17
2022-11-18T13:58:02.935Z,5.03
2022-11-18T14:00:34.682Z,5.05
2022-11-18T14:03:23.192Z,6.32
2022-11-18T14:05:54.621Z,10.32
2022-11-18T14:08:30.103Z,4.85
2022-11-18T14:10:58.596Z,11.38
2022-11-18T14:13:31.888Z,3.22
2022-11-18T14:16:02.394Z,3.90
2022-11-18T14:18:37.280Z,4.15
2022-11-18T14:21:05.974Z,2.80
2022-11-18T14:23:37.383Z,4.82
2022-11-18T14:26:07.039Z,21.55
2022-11-18T14:28:38.543Z,7.15
2022-11-18T14:31:25.769Z,5.70
2022-11-18T14:34:23.922Z,10.75
2022-11-18T14:36:52.574Z,6.95
2022-11-18T14:39:26.737Z,8.15
2022-11-18T14:41:59.730Z,8.02
2022-11-18T14:44:28.458Z,5.20
2022-11-18T14:47:03.345Z,4.47
2022-11-18T14:49:32.638Z,5.57
2022-11-18T14:52:02.802Z,6.05
2022-11-18T14:54:33.217Z,4.55
2022-11-18T14:57:03.192Z,4.93
2022-11-18T14:59:32.252Z,5.07
2022-11-18T15:02:00.166Z,3.60
2022-11-18T15:04:27.437Z,4.78
2022-11-18T15:06:54.923Z,11.90
2022-11-18T15:09:22.149Z,7.00
2022-11-18T15:11:49.544Z,8.88
2022-11-18T15:14:17.236Z,7.63
2022-11-18T15:16:44.850Z,4.40
2022-11-18T15:19:15.556Z,2.95
2022-11-18T15:21:45.369Z,5.10
2022-11-18T15:24:12.714Z,9.02
2022-11-18T15:26:43.460Z,36.05
2022-11-18T15:29:19.671Z,11.32
2022-11-18T15:31:47.709Z,19.98
2022-11-18T15:34:15.998Z,20.98
2022-11-18T15:36:43.622Z,7.22
2022-11-18T15:39:11.369Z,6.88
2022-11-18T15:41:40.335Z,7.40
2022-11-18T15:44:09.216Z,10.32
2022-11-18T15:46:36.863Z,8.88
2022-11-18T15:49:04.532Z,9.57
2022-11-18T15:51:33.268Z,12.10
2022-11-18T15:54:00.272Z,11.30
2022-11-18T15:56:30.550Z,16.42
2022-11-18T15:59:01.427Z,30.17
2022-11-18T16:01:34.438Z,23.77
2022-11-18T16:04:01.997Z,8.88
2022-11-18T16:06:29.443Z,13.93
2022-11-18T16:08:59.932Z,9.32
2022-11-18T16:11:51.269Z,6.30
2022-11-18T16:14:20.347Z,15.43
2022-11-18T16:16:50.910Z,7.05
2022-11-18T16:19:19.972Z,19.95
2022-11-18T16:21:50.641Z,20.83
2022-11-18T16:24:21.178Z,42.85
2022-11-18T16:26:49.701Z,23.67
2022-11-18T16:29:18.397Z,116.40
2022-11-18T16:31:50.978Z,70.60
2022-11-18T16:34:28.276Z,37.42
2022-11-18T16:36:57.935Z,25.73
2022-11-18T16:39:27.395Z,24.25
2022-11-18T16:42:08.467Z,27.90
2022-11-18T16:44:36.702Z,33.38
2022-11-18T16:47:09.256Z,20.25
2022-11-18T16:49:41.472Z,35.15
2022-11-18T16:52:09.236Z,24.88
2022-11-18T16:54:42.976Z,40.83
2022-11-18T16:57:13.434Z,32.75
2022-11-18T16:59:40.859Z,13.65
2022-11-18T17:02:12.887Z,22.05
2022-11-18T17:04:40.313Z,14.35
2022-11-18T17:07:10.160Z,20.17
2022-11-18T17:09:37.866Z,20.48
2022-11-18T17:12:05.688Z,18.70
2022-11-18T17:14:33.095Z,8.15
2022-11-18T17:17:00.427Z,16.20
2022-11-18T17:19:27.590Z,18.77
2022-11-18T17:21:54.983Z,18.65
2022-11-18T17:24:23.519Z,26.45
2022-11-18T17:26:52.422Z,13.68
2022-11-18T17:29:20.265Z,55.92
2022-11-18T17:31:47.956Z,33.65
2022-11-18T17:34:16.274Z,24.55
2022-11-18T17:36:43.956Z,15.88
2022-11-18T17:39:12.254Z,27.65
2022-11-18T17:41:58.509Z,25.55
2022-11-18T17:44:27.113Z,52.97
2022-11-18T17:46:54.721Z,52.17
2022-11-18T17:49:22.288Z,27.67
2022-11-18T17:51:51.282Z,62.67
2022-11-18T17:54:19.581Z,28.92
2022-11-18T17:56:47.370Z,23.38
2022-11-18T17:59:15.924Z,22.08
2022-11-18T18:01:44.706Z,33.25
2022-11-18T18:04:14.509Z,22.30
2022-11-18T18:06:44.354Z,31.33
2022-11-18T18:09:11.356Z,50.25
2022-11-18T18:11:38.795Z,57.38
2022-11-18T18:14:15.305Z,33.53
2022-11-18T18:16:45.632Z,14.75
2022-11-18T18:19:18.633Z,56.03
2022-11-18T18:21:48.511Z,23.33
2022-11-18T18:24:18.597Z,34.53
2022-11-18T18:26:49.527Z,12.05
2022-11-18T18:29:16.776Z,30.85
2022-11-18T18:31:44.174Z,12.02
2022-11-18T18:34:11.203Z,31.02
2022-11-18T18:36:38.588Z,18.63
2022-11-18T18:39:05.956Z,11.65
2022-11-18T18:41:33.574Z,18.17
2022-11-18T18:44:01.096Z,28.00
2022-11-18T18:46:32.321Z,16.77
2022-11-18T18:49:06.581Z,18.27
2022-11-18T18:51:39.758Z,30.42
2022-11-18T18:54:07.950Z,21.38
2022-11-18T18:56:35.296Z,9.70
2022-11-18T18:59:02.609Z,12.52
2022-11-18T19:01:33.642Z,13.00
2022-11-18T19:04:04.230Z,14.60
2022-11-18T19:06:58.996Z,18.42
2022-11-18T19:09:24.986Z,11.55
2022-11-18T19:12:10.936Z,19.33
2022-11-18T19:14:41.105Z,24.23
2022-11-18T19:17:11.664Z,16.35
2022-11-18T19:19:59.805Z,13.65
2022-11-18T19:22:30.464Z,11.75
2022-11-18T19:24:58.141Z,11.25
2022-11-18T19:27:29.166Z,15.15
2022-11-18T19:29:56.840Z,15.15
2022-11-18T19:32:24.388Z,15.05
2022-11-18T19:34:51.600Z,11.77
2022-11-18T19:37:18.967Z,7.72
2022-11-18T19:39:45.995Z,8.43
2022-11-18T19:42:13.450Z,10.63
2022-11-18T19:44:40.544Z,20.77
2022-11-18T19:47:08.008Z,28.95
2022-11-18T19:49:35.293Z,39.80
2022-11-18T19:52:02.788Z,40.63
2022-11-18T19:54:30.224Z,25.73
2022-11-18T19:57:03.841Z,32.13
2022-11-18T19:59:30.912Z,17.27
2022-11-18T20:01:58.207Z,23.52
2022-11-18T20:04:29.577Z,25.27
2022-11-18T20:06:57.149Z,20.88
2022-11-18T20:09:25.426Z,12.27
2022-11-18T20:11:53.063Z,12.10
2022-11-18T20:14:20.142Z,12.80
2022-11-18T20:16:47.507Z,12.93
2022-11-18T20:19:19.679Z,9.13
2022-11-18T20:21:48.826Z,15.65
2022-11-18T20:24:18.939Z,40.15
2022-11-18T20:26:46.525Z,21.33
2022-11-18T20:29:13.659Z,19.55
2022-11-18T20:31:41.687Z,29.52
2022-11-18T20:34:13.549Z,14.10
2022-11-18T20:36:41.338Z,13.60
2022-11-18T20:39:15.992Z,15.32
2022-11-18T20:42:04.433Z,16.77
2022-11-18T20:44:31.735Z,40.67
2022-11-18T20:46:59.096Z,49.75
2022-11-18T20:49:26.187Z,45.65
2022-11-18T20:51:53.492Z,41.90
2022-11-18T20:54:20.600Z,27.63
2022-11-18T20:56:48.026Z,26.10
2022-11-18T20:59:15.074Z,28.98
2022-11-18T21:01:42.597Z,12.88
2022-11-18T21:04:11.537Z,24.25
2022-11-18T21:06:39.065Z,54.53
2022-11-18T21:09:07.725Z,77.78
2022-11-18T21:11:35.920Z,61.97
2022-11-18T21:14:24.320Z,51.42
2022-11-18T21:16:55.340Z,56.10
2022-11-18T21:19:23.817Z,49.63
2022-11-18T21:21:53.918Z,75.32
2022-11-18T21:24:29.907Z,110.43
2022-11-18T21:26:58.925Z,117.95
2022-11-18T21:29:28.077Z,98.07
2022-11-18T21:31:58.825Z,66.68
2022-11-18T21:34:26.417Z,156.70
2022-11-18T21:37:00.754Z,121.65
2022-11-18T21:39:27.906Z,68.03
2022-11-18T21:41:57.103Z,77.25
2022-11-18T21:44:28.129Z,69.88
2022-11-18T21:46:56.527Z,64.90
2022-11-18T21:49:24.036Z,65.95
2022-11-18T21:51:51.492Z,66.70
2022-11-18T21:54:18.739Z,78.95
2022-11-18T21:56:46.155Z,75.80
2022-11-18T21:59:13.332Z,77.55
2022-11-18T22:01:40.721Z,50.22
2022-11-18T22:04:07.758Z,63.75
2022-11-18T22:06:35.265Z,94.93
2022-11-18T22:09:04.066Z,55.58
2022-11-18T22:11:31.589Z,70.10
2022-11-18T22:13:58.746Z,134.27
2022-11-18T22:16:26.865Z,67.00
2022-11-18T22:19:01.391Z,54.15
2022-11-18T22:21:32.729Z,53.58
2022-11-18T22:24:01.156Z,24.23
2022-11-18T22:26:29.395Z,46.65
2022-11-18T22:28:58.567Z,21.67
2022-11-18T22:31:29.086Z,31.75
2022-11-18T22:33:57.356Z,40.65
2022-11-18T22:36:26.745Z,36.33
2022-11-18T22:38:54.529Z,74.80
2022-11-18T22:41:43.137Z,55.50
2022-11-18T22:44:11.642Z,24.02
2022-11-18T22:46:40.880Z,19.67
2022-11-18T22:49:10.508Z,40.88
2022-11-18T22:51:39.739Z,56.17
2022-11-18T22:56:55.669Z,24.50
2022-11-18T22:59:24.260Z,28.75
2022-11-18T23:01:54.400Z,40.58
2022-11-18T23:04:21.708Z,36.70
2022-11-18T23:06:49.704Z,41.28
2022-11-18T23:09:17.747Z,21.38
2022-11-18T23:12:03.631Z,25.13
2022-11-18T23:16:58.022Z,53.53
2022-11-18T23:19:25.393Z,51.22
2022-11-18T23:21:52.691Z,45.58
2022-11-18T23:24:19.904Z,34.10
2022-11-18T23:26:48.073Z,17.23
2022-11-18T23:29:15.720Z,24.88
2022-11-18T23:31:44.580Z,44.38
2022-11-18T23:34:13.760Z,49.50
2022-11-18T23:36:41.669Z,34.70
2022-11-18T23:39:09.321Z,51.25
2022-11-18T23:41:36.847Z,42.72
2022-11-18T23:44:06.911Z,33.33
2022-11-18T23:46:34.587Z,20.77
2022-11-18T23:49:01.875Z,19.02
2022-11-18T23:51:29.358Z,17.95
2022-11-18T23:53:57.675Z,14.82
2022-11-18T23:56:27.066Z,15.35
2022-11-18T23:58:56.032Z,13.20
